createdAt,value
2023-04-04T00:02:00.742Z,95466.47
2023-04-04T00:04:28.716Z,95463.81
2023-04-04T00:06:57.781Z,95448.44
2023-04-04T00:09:25.458Z,95454.25
2023-04-04T00:11:53.528Z,95450.59
2023-04-04T00:14:21.632Z,95450.75
2023-04-04T00:16:49.214Z,95444.56
2023-04-04T00:19:18.331Z,95449.91
2023-04-04T00:21:46.687Z,95437.41
2023-04-04T00:24:15.646Z,95436.91
2023-04-04T00:26:43.352Z,95431.19
2023-04-04T00:29:10.991Z,95439.19
2023-04-04T00:31:38.671Z,95429.53
2023-04-04T00:34:06.940Z,95428.84
2023-04-04T00:36:34.637Z,95424.34
2023-04-04T00:39:02.275Z,95430.50
2023-04-04T00:41:31.310Z,95423.50
2023-04-04T00:43:59.031Z,95429.16
2023-04-04T00:46:27.180Z,95427.47
2023-04-04T00:48:55.296Z,95419.63
2023-04-04T00:51:23.047Z,95417.44
2023-04-04T00:53:51.937Z,95406.03
2023-04-04T00:56:20.029Z,95405.22
2023-04-04T00:58:49.064Z,95402.38
2023-04-04T01:01:17.272Z,95403.06
2023-04-04T01:03:45.434Z,95412.25
2023-04-04T01:06:13.132Z,95415.38
2023-04-04T01:08:41.020Z,95409.72
2023-04-04T01:11:08.627Z,95410.88
2023-04-04T01:13:36.277Z,95411.03
2023-04-04T01:16:05.845Z,95413.38
2023-04-04T01:18:35.094Z,95403.69
2023-04-04T01:21:05.051Z,95403.00
2023-04-04T01:23:37.357Z,95399.38
2023-04-04T01:26:07.942Z,95393.00
2023-04-04T01:28:35.550Z,95394.03
2023-04-04T01:31:03.744Z,95390.16
2023-04-04T01:33:38.013Z,95385.66
2023-04-04T01:36:10.858Z,95386.44
2023-04-04T01:38:44.134Z,95383.78
2023-04-04T01:41:14.791Z,95382.75
2023-04-04T01:43:45.917Z,95393.25
2023-04-04T01:46:13.764Z,95386.09
2023-04-04T01:48:41.759Z,95377.09
2023-04-04T01:51:09.367Z,95377.94
2023-04-04T01:53:37.396Z,95382.75
2023-04-04T01:56:05.552Z,95379.56
2023-04-04T01:58:34.499Z,95384.91
2023-04-04T02:01:02.163Z,95378.88
2023-04-04T02:03:29.794Z,95378.88
2023-04-04T02:05:57.425Z,95379.03
2023-04-04T02:08:25.000Z,95379.22
2023-04-04T02:10:52.609Z,95384.19
2023-04-04T02:13:20.205Z,95379.50
2023-04-04T02:15:49.538Z,95376.84
2023-04-04T02:18:17.392Z,95376.84
2023-04-04T02:20:45.036Z,95371.81
2023-04-04T02:23:12.626Z,95378.84
2023-04-04T02:25:40.232Z,95371.31
2023-04-04T02:28:07.836Z,95369.78
2023-04-04T02:30:35.430Z,95374.97
2023-04-04T02:33:04.593Z,95366.13
2023-04-04T02:35:32.289Z,95368.75
2023-04-04T02:38:00.128Z,95367.06
2023-04-04T02:40:27.759Z,95359.06
2023-04-04T02:42:55.402Z,95362.44
2023-04-04T02:45:23.094Z,95359.75
2023-04-04T02:47:51.476Z,95355.25
2023-04-04T02:50:20.630Z,95357.09
2023-04-04T02:52:48.219Z,95358.22
2023-04-04T02:55:15.953Z,95354.59
2023-04-04T02:57:43.537Z,95363.19
2023-04-04T03:00:12.228Z,95361.38
2023-04-04T03:02:39.988Z,95365.19
2023-04-04T03:05:08.213Z,95366.31
2023-04-04T03:07:37.220Z,95362.69
2023-04-04T03:10:05.325Z,95361.31
2023-04-04T03:12:32.929Z,95362.16
2023-04-04T03:15:00.563Z,95365.81
2023-04-04T03:17:28.209Z,95364.97
2023-04-04T03:19:55.838Z,95367.91
2023-04-04T03:22:23.706Z,95366.06
2023-04-04T03:24:52.802Z,95369.25
2023-04-04T03:27:20.451Z,95359.06
2023-04-04T03:29:48.072Z,95353.69
2023-04-04T03:32:15.726Z,95365.00
2023-04-04T03:34:43.576Z,95361.81
2023-04-04T03:37:11.342Z,95356.81
2023-04-04T03:39:39.344Z,95357.63
2023-04-04T03:42:08.315Z,95357.94
2023-04-04T03:44:36.602Z,95359.94
2023-04-04T03:47:04.189Z,95359.09
2023-04-04T03:49:32.889Z,95362.91
2023-04-04T03:52:02.247Z,95357.41
2023-04-04T03:54:30.157Z,95362.75
2023-04-04T03:56:58.260Z,95369.00
2023-04-04T03:59:27.246Z,95367.19
2023-04-04T04:01:55.261Z,95368.16
2023-04-04T04:04:22.856Z,95367.31
2023-04-04T04:06:50.514Z,95370.81
2023-04-04T04:09:19.113Z,95374.94
2023-04-04T04:11:46.702Z,95378.91
2023-04-04T04:14:14.311Z,95380.88
2023-04-04T04:16:43.224Z,95381.34
2023-04-04T04:19:10.837Z,95377.00
2023-04-04T04:21:38.426Z,95391.78
2023-04-04T04:24:06.782Z,95385.75
2023-04-04T04:26:34.355Z,95386.03
2023-04-04T04:29:02.484Z,95391.69
2023-04-04T04:32:04.653Z,95386.97
2023-04-04T04:34:32.390Z,95388.09
2023-04-04T04:37:00.004Z,95380.59
2023-04-04T04:39:27.577Z,95388.56
2023-04-04T04:41:55.100Z,95391.63
2023-04-04T04:44:22.666Z,95389.78
2023-04-04T04:46:51.795Z,95392.28
2023-04-04T04:49:19.442Z,95388.09
2023-04-04T04:51:47.080Z,95390.06
2023-04-04T04:54:14.670Z,95386.06
2023-04-04T04:56:42.276Z,95390.00
2023-04-04T04:59:11.369Z,95390.66
2023-04-04T05:01:39.141Z,95386.50
2023-04-04T05:04:08.242Z,95399.13
2023-04-04T05:06:36.000Z,95396.31
2023-04-04T05:09:03.754Z,95393.81
2023-04-04T05:11:31.569Z,95398.97
2023-04-04T05:13:59.534Z,95400.50
2023-04-04T05:16:27.167Z,95403.84
2023-04-04T05:18:54.779Z,95400.34
2023-04-04T05:21:23.935Z,95404.41
2023-04-04T05:23:51.848Z,95409.25
2023-04-04T05:26:19.421Z,95408.13
2023-04-04T05:28:47.024Z,95406.66
2023-04-04T05:31:14.598Z,95411.03
2023-04-04T05:33:42.247Z,95416.44
2023-04-04T05:36:11.362Z,95413.13
2023-04-04T05:38:40.448Z,95414.22
2023-04-04T05:41:08.091Z,95413.28
2023-04-04T05:43:35.686Z,95413.38
2023-04-04T05:46:03.351Z,95413.75
2023-04-04T05:48:31.006Z,95417.16
2023-04-04T05:50:58.585Z,95416.94
2023-04-04T05:53:26.191Z,95411.34
2023-04-04T05:55:55.102Z,95415.59
2023-04-04T05:58:22.714Z,95407.47
2023-04-04T06:00:50.350Z,95412.03
2023-04-04T06:03:20.348Z,95415.28
2023-04-04T06:05:51.431Z,95417.53
2023-04-04T06:08:19.086Z,95414.41
2023-04-04T06:10:46.712Z,95402.16
2023-04-04T06:13:15.702Z,95408.53
2023-04-04T06:15:43.286Z,95415.06
2023-04-04T06:18:11.095Z,95406.44
2023-04-04T06:20:38.981Z,95412.16
2023-04-04T06:23:06.794Z,95413.81
2023-04-04T06:25:34.407Z,95412.69
2023-04-04T06:28:03.557Z,95407.03
2023-04-04T06:30:32.559Z,95401.00
2023-04-04T06:33:00.178Z,95401.88
2023-04-04T06:35:27.784Z,95401.53
2023-04-04T06:37:55.922Z,95394.50
2023-04-04T06:40:23.620Z,95404.69
2023-04-04T06:42:52.160Z,95411.38
2023-04-04T06:45:19.872Z,95395.31
2023-04-04T06:47:50.135Z,95405.66
2023-04-04T06:50:18.075Z,95404.97
2023-04-04T06:52:45.695Z,95402.75
2023-04-04T06:55:13.808Z,95405.41
2023-04-04T06:57:41.388Z,95406.94
2023-04-04T07:00:10.235Z,95395.81
2023-04-04T07:02:38.140Z,95398.59
2023-04-04T07:05:08.198Z,95396.94
2023-04-04T07:07:35.961Z,95396.69
2023-04-04T07:10:03.629Z,95402.72
2023-04-04T07:12:31.514Z,95406.91
2023-04-04T07:14:59.134Z,95411.88
2023-04-04T07:17:26.753Z,95397.66
2023-04-04T07:19:54.377Z,95397.97
2023-04-04T07:22:23.347Z,95406.66
2023-04-04T07:24:51.000Z,95400.72
2023-04-04T07:27:18.554Z,95399.25
2023-04-04T07:29:46.174Z,95402.63
2023-04-04T07:32:13.868Z,95398.78
2023-04-04T07:34:41.778Z,95410.72
2023-04-04T07:37:09.413Z,95402.63
2023-04-04T07:39:38.587Z,95399.19
2023-04-04T07:42:06.640Z,95396.78
2023-04-04T07:44:34.278Z,95385.16
2023-04-04T07:47:09.694Z,95391.41
2023-04-04T07:49:37.790Z,95391.22
2023-04-04T07:52:05.595Z,95392.88
2023-04-04T07:54:33.233Z,95396.69
2023-04-04T07:57:05.425Z,95382.47
2023-04-04T07:59:33.153Z,95388.09
2023-04-04T08:02:00.781Z,95391.69
2023-04-04T08:04:28.476Z,95391.97
2023-04-04T08:06:56.372Z,95398.03
2023-04-04T08:09:24.885Z,95386.25
2023-04-04T08:11:52.676Z,95387.44
2023-04-04T08:14:22.002Z,95386.94
2023-04-04T08:16:49.627Z,95386.69
2023-04-04T08:19:17.800Z,95384.31
2023-04-04T08:21:45.570Z,95398.03
2023-04-04T08:24:13.634Z,95389.59
2023-04-04T08:26:43.583Z,95392.75
2023-04-04T08:29:12.854Z,95394.56
2023-04-04T08:31:42.631Z,95386.88
2023-04-04T08:34:10.404Z,95386.69
2023-04-04T08:36:37.977Z,95391.34
2023-04-04T08:39:05.590Z,95392.00
2023-04-04T08:41:35.690Z,95399.59
2023-04-04T08:44:04.457Z,95400.81
2023-04-04T08:46:32.894Z,95400.59
2023-04-04T08:49:04.228Z,95392.28
2023-04-04T08:51:32.867Z,95394.47
2023-04-04T08:54:02.147Z,95390.09
2023-04-04T08:56:30.516Z,95400.81
2023-04-04T08:58:59.176Z,95406.16
2023-04-04T09:01:29.706Z,95400.41
2023-04-04T09:03:58.069Z,95405.22
2023-04-04T09:06:28.064Z,95401.63
2023-04-04T09:08:57.470Z,95396.72
2023-04-04T09:11:26.346Z,95403.69
2023-04-04T09:13:56.104Z,95399.56
2023-04-04T09:16:24.090Z,95403.84
2023-04-04T09:18:52.888Z,95397.78
2023-04-04T09:21:20.666Z,95401.06
2023-04-04T09:23:59.475Z,95401.88
2023-04-04T09:26:27.174Z,95396.72
2023-04-04T09:28:54.944Z,95394.09
2023-04-04T09:31:22.578Z,95387.09
2023-04-04T09:33:50.579Z,95401.63
2023-04-04T09:36:18.734Z,95409.81
2023-04-04T09:38:48.817Z,95401.81
2023-04-04T09:41:20.783Z,95403.97
2023-04-04T09:43:49.374Z,95399.56
2023-04-04T09:46:20.532Z,95405.25
2023-04-04T09:48:50.668Z,95416.22
2023-04-04T09:51:18.378Z,95401.06
2023-04-04T09:53:49.009Z,95404.00
2023-04-04T09:56:18.082Z,95404.25
2023-04-04T09:59:00.792Z,95420.25
2023-04-04T10:01:31.418Z,95421.44
2023-04-04T10:03:59.292Z,95415.84
2023-04-04T10:06:27.957Z,95409.41
2023-04-04T10:08:58.342Z,95410.78
2023-04-04T10:11:32.388Z,95410.06
2023-04-04T10:14:00.860Z,95408.66
2023-04-04T10:16:33.056Z,95406.63
2023-04-04T10:19:01.591Z,95406.25
2023-04-04T10:21:29.383Z,95400.94
2023-04-04T10:23:57.421Z,95404.16
2023-04-04T10:26:26.254Z,95410.59
2023-04-04T10:28:56.244Z,95406.72
2023-04-04T10:31:25.174Z,95411.94
2023-04-04T10:34:01.805Z,95415.38
2023-04-04T10:36:32.339Z,95402.38
2023-04-04T10:39:06.133Z,95404.72
2023-04-04T10:41:34.135Z,95403.97
2023-04-04T10:44:11.477Z,95398.13
2023-04-04T10:46:41.248Z,95391.03
2023-04-04T10:49:09.447Z,95399.84
2023-04-04T10:51:45.107Z,95397.00
2023-04-04T10:54:21.230Z,95405.75
2023-04-04T10:56:49.353Z,95398.25
2023-04-04T10:59:18.409Z,95397.25
2023-04-04T11:01:50.538Z,95398.97
2023-04-04T11:04:20.718Z,95398.91
2023-04-04T11:07:11.822Z,95391.38
2023-04-04T11:09:53.313Z,95398.34
2023-04-04T11:12:29.128Z,95391.25
2023-04-04T11:15:07.639Z,95396.53
2023-04-04T11:17:46.659Z,95384.13
2023-04-04T11:20:16.898Z,95389.28
2023-04-04T11:22:45.599Z,95387.16
2023-04-04T11:25:34.843Z,95374.84
2023-04-04T11:28:06.925Z,95366.09
2023-04-04T11:30:39.450Z,95370.09
2023-04-04T11:33:08.354Z,95371.06
2023-04-04T11:35:39.837Z,95366.72
2023-04-04T11:38:14.118Z,95366.19
2023-04-04T11:40:43.060Z,95373.25
2023-04-04T11:43:12.386Z,95363.78
2023-04-04T11:45:46.210Z,95364.81
2023-04-04T11:48:15.818Z,95366.72
2023-04-04T11:50:44.640Z,95368.19
2023-04-04T11:53:12.630Z,95369.00
2023-04-04T11:55:42.776Z,95365.66
2023-04-04T11:58:13.041Z,95357.47
2023-04-04T12:00:41.640Z,95362.06
2023-04-04T12:03:12.178Z,95357.69
2023-04-04T12:05:41.231Z,95357.22
2023-04-04T12:08:10.163Z,95355.78
2023-04-04T12:10:39.551Z,95353.91
2023-04-04T12:13:08.339Z,95355.34
2023-04-04T12:15:37.254Z,95363.41
2023-04-04T12:18:07.990Z,95355.25
2023-04-04T12:20:38.991Z,95363.59
2023-04-04T12:23:06.622Z,95369.44
2023-04-04T12:25:34.899Z,95361.50
2023-04-04T12:28:03.999Z,95373.16
2023-04-04T12:30:31.755Z,95363.16
2023-04-04T12:32:59.588Z,95356.94
2023-04-04T12:35:27.423Z,95344.41
2023-04-04T12:38:03.569Z,95354.00
2023-04-04T12:40:37.256Z,95348.59
2023-04-04T12:43:06.790Z,95351.53
2023-04-04T12:45:38.917Z,95347.38
2023-04-04T12:48:14.952Z,95356.72
2023-04-04T12:50:53.147Z,95342.81
2023-04-04T12:55:54.581Z,95348.59
2023-04-04T12:58:23.844Z,95347.75
2023-04-04T13:00:52.664Z,95350.63
2023-04-04T13:03:22.548Z,95347.00
2023-04-04T13:05:50.557Z,95342.22
2023-04-04T13:08:18.927Z,95338.91
2023-04-04T13:11:06.120Z,95344.97
2023-04-04T13:13:35.693Z,95333.47
2023-04-04T13:16:04.460Z,95332.19
2023-04-04T13:18:38.229Z,95327.56
2023-04-04T13:21:07.864Z,95321.97
2023-04-04T13:23:35.954Z,95323.94
2023-04-04T13:26:05.225Z,95337.28
2023-04-04T13:28:32.963Z,95329.22
2023-04-04T13:31:03.490Z,95329.41
2023-04-04T13:33:31.415Z,95319.72
2023-04-04T13:35:59.497Z,95321.16
2023-04-04T13:38:27.729Z,95321.94
2023-04-04T13:40:55.494Z,95317.56
2023-04-04T13:43:24.552Z,95321.81
2023-04-04T13:45:53.310Z,95314.47
2023-04-04T13:48:20.934Z,95318.03
2023-04-04T13:50:51.392Z,95313.72
2023-04-04T13:53:19.524Z,95312.25
2023-04-04T13:56:13.079Z,95314.53
2023-04-04T13:58:36.452Z,95317.44
2023-04-04T14:01:05.831Z,95329.91
2023-04-04T14:03:33.503Z,95320.94
2023-04-04T14:08:48.711Z,95324.91
2023-04-04T14:11:16.916Z,95317.66
2023-04-04T14:13:46.204Z,95318.88
2023-04-04T14:16:14.069Z,95308.72
2023-04-04T14:18:41.721Z,95311.41
2023-04-04T14:21:09.383Z,95322.00
2023-04-04T14:23:36.979Z,95314.84
2023-04-04T14:26:04.963Z,95317.16
2023-04-04T14:28:32.756Z,95311.56
2023-04-04T14:31:01.867Z,95319.00
2023-04-04T14:33:29.488Z,95315.72
2023-04-04T14:35:57.064Z,95317.00
2023-04-04T14:38:24.652Z,95317.41
2023-04-04T14:40:52.456Z,95317.81
2023-04-04T14:43:20.100Z,95323.22
2023-04-04T14:45:47.726Z,95318.03
2023-04-04T14:48:16.800Z,95314.94
2023-04-04T14:50:45.751Z,95310.16
2023-04-04T14:53:14.180Z,95306.63
2023-04-04T14:55:42.073Z,95313.28
2023-04-04T14:58:09.912Z,95312.84
2023-04-04T15:00:37.532Z,95319.94
2023-04-04T15:03:07.172Z,95316.78
2023-04-04T15:05:36.653Z,95317.78
2023-04-04T15:08:04.707Z,95317.78
2023-04-04T15:10:32.298Z,95316.56
2023-04-04T15:13:00.110Z,95312.63
2023-04-04T15:15:28.999Z,95309.91
2023-04-04T15:17:56.747Z,95317.22
2023-04-04T15:20:24.391Z,95315.75
2023-04-04T15:22:53.410Z,95316.38
2023-04-04T15:25:21.237Z,95316.78
2023-04-04T15:27:48.889Z,95317.00
2023-04-04T15:30:16.743Z,95317.00
2023-04-04T15:32:44.420Z,95319.91
2023-04-04T15:35:17.266Z,95310.28
2023-04-04T15:37:44.986Z,95317.53
2023-04-04T15:40:14.032Z,95316.53
2023-04-04T15:42:41.778Z,95319.34
2023-04-04T15:45:10.667Z,95321.00
2023-04-04T15:47:38.330Z,95308.06
2023-04-04T15:50:07.383Z,95315.75
2023-04-04T15:52:35.298Z,95308.50
2023-04-04T15:55:03.544Z,95313.09
2023-04-04T15:57:32.523Z,95313.84
2023-04-04T16:00:00.191Z,95304.03
2023-04-04T16:02:27.885Z,95301.38
2023-04-04T16:04:55.490Z,95303.28
2023-04-04T16:07:23.112Z,95303.06
2023-04-04T16:09:50.902Z,95308.50
2023-04-04T16:12:18.526Z,95301.00
2023-04-04T16:14:47.533Z,95305.53
2023-04-04T16:17:15.587Z,95305.94
2023-04-04T16:19:43.180Z,95306.16
2023-04-04T16:22:10.840Z,95305.69
2023-04-04T16:24:38.498Z,95300.28
2023-04-04T16:27:06.347Z,95294.28
2023-04-04T16:29:33.992Z,95307.69
2023-04-04T16:32:05.725Z,95298.34
2023-04-04T16:34:33.415Z,95300.44
2023-04-04T16:37:01.213Z,95306.81
2023-04-04T16:39:28.839Z,95300.84
2023-04-04T16:41:56.450Z,95292.56
2023-04-04T16:44:24.096Z,95296.47
2023-04-04T16:46:51.789Z,95291.88
2023-04-04T16:49:20.863Z,95296.38
2023-04-04T16:51:48.877Z,95290.22
2023-04-04T16:54:16.450Z,95287.09
2023-04-04T16:56:44.023Z,95285.59
2023-04-04T16:59:11.747Z,95292.97
2023-04-04T17:01:39.614Z,95286.97
2023-04-04T17:04:07.251Z,95289.38
2023-04-04T17:06:36.214Z,95289.56
2023-04-04T17:09:04.036Z,95290.59
2023-04-04T17:11:32.042Z,95292.91
2023-04-04T17:13:59.765Z,95291.34
2023-04-04T17:16:28.072Z,95287.56
2023-04-04T17:18:55.825Z,95299.19
2023-04-04T17:21:23.682Z,95291.28
2023-04-04T17:23:52.957Z,95293.13
2023-04-04T17:26:20.877Z,95290.81
2023-04-04T17:28:48.578Z,95298.59
2023-04-04T17:31:17.690Z,95291.94
2023-04-04T17:33:45.744Z,95299.34
2023-04-04T17:36:13.399Z,95293.03
2023-04-04T17:38:41.562Z,95289.28
2023-04-04T17:41:11.259Z,95292.97
2023-04-04T17:43:38.955Z,95294.78
2023-04-04T17:46:07.212Z,95287.66
2023-04-04T17:48:36.766Z,95295.66
2023-04-04T17:51:06.865Z,95290.44
2023-04-04T17:53:35.936Z,95290.63
2023-04-04T17:56:03.604Z,95289.69
2023-04-04T17:58:32.608Z,95285.09
2023-04-04T18:01:02.782Z,95285.28
2023-04-04T18:03:30.611Z,95288.34
2023-04-04T18:05:58.344Z,95285.84
2023-04-04T18:08:26.238Z,95284.94
2023-04-04T18:10:53.884Z,95293.38
2023-04-04T18:13:21.866Z,95294.50
2023-04-04T18:15:51.697Z,95298.59
2023-04-04T18:18:21.224Z,95299.97
2023-04-04T18:20:48.995Z,95298.50
2023-04-04T18:23:17.543Z,95293.31
2023-04-04T18:25:45.194Z,95297.97
2023-04-04T18:28:12.859Z,95293.88
2023-04-04T18:30:40.913Z,95291.38
2023-04-04T18:33:10.088Z,95298.34
2023-04-04T18:35:37.831Z,95298.06
2023-04-04T18:38:06.082Z,95300.31
2023-04-04T18:40:33.721Z,95301.75
2023-04-04T18:43:02.884Z,95303.41
2023-04-04T18:45:39.342Z,95302.22
2023-04-04T18:48:08.290Z,95309.66
2023-04-04T18:50:37.487Z,95311.06
2023-04-04T18:53:05.448Z,95307.25
2023-04-04T18:55:33.091Z,95310.72
2023-04-04T18:58:00.755Z,95312.59
2023-04-04T19:00:28.396Z,95317.78
2023-04-04T19:02:57.046Z,95314.69
2023-04-04T19:05:25.726Z,95312.53
2023-04-04T19:07:55.221Z,95319.94
2023-04-04T19:10:23.352Z,95310.16
2023-04-04T19:12:51.064Z,95311.16
2023-04-04T19:15:18.989Z,95316.22
2023-04-04T19:17:47.046Z,95320.41
2023-04-04T19:20:14.746Z,95319.38
2023-04-04T19:22:42.391Z,95320.75
2023-04-04T19:25:11.509Z,95324.13
2023-04-04T19:27:39.347Z,95325.53
2023-04-04T19:30:13.193Z,95324.13
2023-04-04T19:32:40.910Z,95326.16
2023-04-04T19:35:21.176Z,95320.50
2023-04-04T19:37:48.766Z,95318.19
2023-04-04T19:40:45.326Z,95317.88
2023-04-04T19:43:14.568Z,95331.16
2023-04-04T19:45:48.676Z,95330.00
2023-04-04T19:48:42.305Z,95321.97
2023-04-04T19:51:10.956Z,95329.53
2023-04-04T19:53:38.643Z,95313.63
2023-04-04T19:56:09.242Z,95323.69
2023-04-04T19:58:38.839Z,95319.41
2023-04-04T20:01:10.180Z,95315.09
2023-04-04T20:03:39.669Z,95311.75
2023-04-04T20:06:10.183Z,95317.47
2023-04-04T20:08:44.169Z,95315.66
2023-04-04T20:11:12.887Z,95312.34
2023-04-04T20:13:42.201Z,95304.53
2023-04-04T20:16:11.498Z,95311.38
2023-04-04T20:18:39.923Z,95314.53
2023-04-04T20:21:12.903Z,95314.03
2023-04-04T20:23:49.458Z,95310.38
2023-04-04T20:26:43.824Z,95305.72
2023-04-04T20:29:14.467Z,95312.25
2023-04-04T20:31:43.915Z,95306.25
2023-04-04T20:34:30.927Z,95309.97
2023-04-04T20:36:58.548Z,95310.28
2023-04-04T20:39:40.574Z,95317.28
2023-04-04T20:42:44.714Z,95321.63
2023-04-04T20:45:47.577Z,95308.28
2023-04-04T20:48:39.518Z,95307.16
2023-04-04T20:51:23.929Z,95306.16
2023-04-04T20:53:52.816Z,95314.72
2023-04-04T20:56:43.012Z,95312.06
2023-04-04T20:59:32.270Z,95308.53
2023-04-04T21:02:12.133Z,95314.75
2023-04-04T21:04:41.196Z,95313.06
2023-04-04T21:07:08.833Z,95319.06
2023-04-04T21:09:36.503Z,95317.09
2023-04-04T21:12:04.718Z,95315.41
2023-04-04T21:14:37.185Z,95314.59
2023-04-04T21:17:09.438Z,95312.91
2023-04-04T21:19:37.024Z,95309.75
2023-04-04T21:22:06.905Z,95315.09
2023-04-04T21:24:36.568Z,95314.94
2023-04-04T21:27:07.349Z,95313.09
2023-04-04T21:29:34.968Z,95315.44
2023-04-04T21:32:03.778Z,95319.47
2023-04-04T21:34:32.728Z,95318.78
2023-04-04T21:37:02.250Z,95310.75
2023-04-04T21:39:31.116Z,95312.25
2023-04-04T21:42:01.339Z,95312.75
2023-04-04T21:44:29.246Z,95311.13
2023-04-04T21:46:57.057Z,95310.09
2023-04-04T21:49:25.407Z,95306.09
2023-04-04T21:51:54.398Z,95315.94
2023-04-04T21:54:22.022Z,95305.59
2023-04-04T21:56:49.643Z,95305.06
2023-04-04T21:59:17.368Z,95301.41
2023-04-04T22:01:45.067Z,95310.09
2023-04-04T22:04:12.795Z,95300.91
2023-04-04T22:06:40.681Z,95305.28
2023-04-04T22:09:09.660Z,95303.09
2023-04-04T22:11:44.144Z,95308.44
2023-04-04T22:14:17.332Z,95302.78
2023-04-04T22:16:45.273Z,95301.59
2023-04-04T22:19:13.018Z,95302.94
2023-04-04T22:21:48.081Z,95303.75
2023-04-04T22:24:18.848Z,95304.09
2023-04-04T22:26:46.784Z,95300.25
2023-04-04T22:29:14.466Z,95295.09
2023-04-04T22:31:42.144Z,95303.44
2023-04-04T22:34:11.058Z,95301.91
2023-04-04T22:36:39.637Z,95302.78
2023-04-04T22:39:07.349Z,95290.72
2023-04-04T22:41:36.365Z,95290.88
2023-04-04T22:44:04.090Z,95293.06
2023-04-04T22:46:32.210Z,95289.56
2023-04-04T22:49:06.760Z,95288.06
2023-04-04T22:51:43.048Z,95291.75
2023-04-04T22:54:11.344Z,95289.06
2023-04-04T22:56:40.466Z,95286.56
2023-04-04T22:59:08.243Z,95285.22
2023-04-04T23:01:36.035Z,95287.53
2023-04-04T23:04:03.804Z,95287.38
2023-04-04T23:06:31.547Z,95276.38
2023-04-04T23:08:59.389Z,95277.88
2023-04-04T23:11:27.796Z,95285.38
2023-04-04T23:13:57.263Z,95286.72
2023-04-04T23:16:26.400Z,95282.03
2023-04-04T23:18:54.359Z,95269.34
2023-04-04T23:21:22.432Z,95271.03
2023-04-04T23:23:50.119Z,95269.34
2023-04-04T23:26:17.737Z,95270.19
2023-04-04T23:28:45.423Z,95268.53
2023-04-04T23:31:16.215Z,95268.84
2023-04-04T23:33:44.074Z,95269.34
2023-04-04T23:36:11.752Z,95273.03
2023-04-04T23:38:39.473Z,95272.53
2023-04-04T23:41:07.505Z,95275.03
2023-04-04T23:43:36.038Z,95280.72
2023-04-04T23:46:03.863Z,95270.03
2023-04-04T23:48:33.090Z,95268.81
2023-04-04T23:51:01.715Z,95266.84
2023-04-04T23:53:29.889Z,95269.34
2023-04-04T23:55:57.541Z,95267.97
2023-04-04T23:58:25.342Z,95256.47
